• Join FlightAware (Why Join?)
  • Login
  • US Flag 
09:16AM EDT


 

Airport Tracker/Info


-or-


 

Live Flight TrackerFlight Track Log ✈ GJS3710 ✈ 08-Jun-2013 ✈ KORD - KALB

Flight Track Log - Related Links

Times and Time Zones

All times are in EDT time to prevent confusion due to time zone crossing. See the GJS3710 flight status page for this flight to view local times or setup timezone preferences in your user account.

Time Position Orientation Groundspeed Altitude Reporting Facility
EDT Latitude Longitude Course Direction KTS MPH feet Rate Location/Type
07:52PM 41.9667 -87.8667 90° East 167 192 2,300  Level Chicago TRACON
07:53PM 41.9833 -87.7833 75° East 213 245 4,300 1,920 Climbing Chicago TRACON
07:54PM 42.1221 -87.4728 63° Northeast  Level FlightAware Approximate
07:54PM 42.0086 -87.7100 65° Northeast 249 287 6,300  Level Chicago Center
07:55PM 42.1747 -87.3262 66° East  Level FlightAware Approximate
07:55PM 42.0483 -87.6150 61° Northeast 288 331 8,900  Level Chicago Center
07:56PM 42.2242 -87.1775 66° East  Level FlightAware Approximate
07:56PM 42.0903 -87.5172 60° Northeast 301 346 11,600  Level Chicago Center
07:57PM 42.2667 -87.0266 90° East  Level FlightAware Approximate
07:57PM 42.1347 -87.4100 61° Northeast 324 373 13,800  Level Chicago Center
07:58PM 42.1819 -87.2642 66° East 367 422 15,500 1,500 Climbing Chicago Center
07:59PM 42.1894 -87.1108 86° East 408 470 16,900 1,380 Climbing Chicago Center
08:00PM 42.1969 -86.9500 86° East 430 495 18,400 1,680 Climbing Chicago Center
08:01PM 42.2047 -86.7842 86° East 444 511 20,400 1,620 Climbing Chicago Center
08:02PM 42.2114 -86.6203 87° East 451 519 21,800 1,200 Climbing Chicago Center
08:03PM 42.2189 -86.4458 87° East 465 535 22,900 1,020 Climbing Chicago Center
08:04PM 42.2267 -86.2628 87° East 482 555 24,000 1,080 Climbing Chicago Center
08:05PM 42.2342 -86.0775 87° East 493 567 25,200 1,140 Climbing Chicago Center
08:06PM 42.2417 -85.8667 87° East 502 578 26,400 1,080 Climbing Chicago Center
08:07PM 42.2489 -85.6775 87° East 506 582 27,500 1,020 Climbing Chicago Center
08:08PM 42.2547 -85.4861 88° East 512 589 28,600 1,020 Climbing Chicago Center
08:09PM 42.2617 -85.2961 87° East 511 588 29,700 1,020 Climbing Chicago Center
08:10PM 42.2697 -85.0628 87° East 519 597 30,800 960 Climbing Chicago Center
08:11PM 42.2747 -84.8725 88° East 513 590 31,700 840 Climbing Chicago Center
08:12PM 42.2811 -84.6808 87° East 513 590 32,600 900 Climbing Chicago Center
08:13PM 42.2867 -84.4906 88° East 511 588 33,600 1,020 Climbing Chicago Center
08:14PM 42.3108 -84.2869 81° East 508 585 34,700 1,020 Climbing Cleveland Center
08:15PM 42.3375 -84.1003 79° East 508 585 35,700 900 Climbing Cleveland Center
08:16PM 42.3639 -83.9161 79° East 502 578 36,600 900 Climbing Cleveland Center
08:17PM 42.3897 -83.7375 79° East 497 572 37,500 900 Climbing Cleveland Center
08:18PM 42.4072 -83.5500 83° East 497 572 38,400 720 Climbing Cleveland Center
08:19PM 42.4222 -83.3706 83° East 491 565 39,000 300 Climbing Cleveland Center
08:20PM 42.4344 -83.2025 84° East 491 565 39,000  Level Cleveland Center
08:21PM 42.4469 -83.0144 85° East 496 571 39,000  Level Cleveland Center
08:22PM 42.4614 -82.8236 84° East 501 577 39,000  Level Cleveland Center
08:23PM 42.4733 -82.6297 85° East 501 577 39,000  Level Cleveland Center
08:24PM 42.4869 -82.4386 84° East 507 583 39,000  Level Cleveland Center
08:25PM 42.5003 -82.2447 85° East 513 590 39,000  Level Cleveland Center
08:26PM 42.5111 -82.0564 85° East 513 590 39,000  Level Cleveland Center
08:27PM 42.5239 -81.8622 85° East 513 590 39,000  Level Cleveland Center
08:28PM 42.5386 -81.6597 84° East 507 583 39,000  Level Cleveland Center
08:29PM 42.5506 -81.4653 85° East 507 583 39,000  Level Cleveland Center
08:30PM 42.5622 -81.2794 85° East 500 575 39,000  Level Cleveland Center
08:31PM 42.5694 -81.1272 86° East 500 575 39,000  Level Cleveland Center
08:32PM 42.5828 -80.8933 85° East 500 575 39,000  Level Cleveland Center
08:33PM 42.5936 -80.7017 86° East 507 583 39,000  Level Cleveland Center
08:34PM 42.6039 -80.5042 86° East 517 595 39,000  Level Cleveland Center
08:35PM 42.6142 -80.3322 85° East 517 595 39,000  Level Cleveland Center
08:36PM 42.6219 -80.1344 87° East 518 596 39,000  Level Cleveland Center
08:37PM 42.6333 -79.9200 86° East 518 596 39,000  Level Cleveland Center
08:38PM 42.6425 -79.7222 86° East 518 596 39,000  Level Cleveland Center
08:39PM 42.6492 -79.5275 87° East 518 596 39,000  Level Cleveland Center
08:40PM 42.6619 -79.3297 85° East 518 596 39,000  Level Cleveland Center
08:41PM 42.6678 -79.1347 88° East 518 596 39,000  Level Cleveland Center
08:42PM 42.6736 -78.9369 88° East 518 596 39,000  Level Cleveland Center
08:43PM 42.6811 -78.7417 87° East 518 596 39,000  Level Cleveland Center
08:44PM 42.6881 -78.5439 87° East 518 596 39,000  Level Cleveland Center
08:45PM 42.6947 -78.3431 87° East 518 596 39,000 -60 Level Cleveland Center
08:46PM 42.7014 -78.1478 87° East 518 596 38,900 -600 Descending Cleveland Center
08:47PM 42.7072 -77.9469 88° East 518 596 37,800 -1,080 Descending Cleveland Center
08:48PM 42.7092 -77.7547 89° East 511 588 36,800 -960 Descending Cleveland Center
08:49PM 42.7153 -77.5878 87° East 511 588 35,900 -1,020 Descending Cleveland Center
08:51PM 42.7236 -77.2061 88° East 507 583 33,900 -1,080 Descending Boston Center
08:52PM 42.7275 -77.0111 88° East 507 583 32,900 -1,080 Descending Boston Center
08:53PM 42.7314 -76.8558 88° East 515 593 31,800 -1,140 Descending Boston Center
08:54PM 42.7353 -76.6442 88° East 515 593 30,400 -1,320 Descending Boston Center
08:55PM 42.7394 -76.4153 89° East 515 593 29,000 -840 Descending Boston Center
08:56PM 42.7425 -76.2061 89° East 510 587 28,800 -1,200 Descending Boston Center
08:57PM 42.7461 -76.0256 88° East 491 565 26,600 -2,220 Descending Boston Center
08:58PM 42.7478 -75.8361 89° East 491 565 24,400 -2,160 Descending Boston Center
08:59PM 42.7508 -75.6553 89° East 491 565 22,300 -2,100 Descending Boston Center
09:00PM 42.7494 -75.4797 91° East 486 559 20,300 -2,040 Descending Boston Center
09:01PM 42.7497 -75.3158 90° East 456 525 18,300 -1,980 Descending Boston Center
09:02PM 42.7514 -75.1547 89° East 437 503 16,400 -1,980 Descending Boston Center
09:03PM 42.7531 -74.9992 89° East 426 490 14,400 -2,040 Descending Boston Center
09:04PM 42.7519 -74.8519 91° East 404 465 12,400 -1,920 Descending Boston Center
09:05PM 42.7533 -74.7900 88° East 379 436 11,700 -1,320 Descending Boston Center
09:05PM 42.7528 -74.7136 91° East 373 429 11,100 -660 Descending Boston Center
09:06PM 42.7522 -74.6400 91° East 339 390 11,000 -120 Descending Boston Center
09:06PM 42.7533 -74.5806 89° East 347 399 11,000  Level Boston Center
09:07PM 42.7525 -74.5069 91° East 346 398 11,000 -120 Level Boston Center
09:07PM 42.7431 -74.4558 104° East 341 392 10,900 -1,140 Descending Boston Center
09:08PM 42.7339 -74.3933 101° East 308 354 9,900 -1,620 Descending Boston Center
09:08PM 42.7242 -74.3422 105° East 322 371 9,300 -1,800 Descending Boston Center
09:09PM 42.7128 -74.2825 105° East 296 341 8,100 -2,220 Descending Boston Center
09:09PM 42.7031 -74.2342 105° East 296 341 7,100 -1,980 Descending Boston Center
09:10PM 42.6914 -74.1744 105° East 298 343 6,100 -2,040 Descending Boston Center
09:10PM 42.6797 -74.1261 108° East 296 341 5,100 -1,980 Descending Boston Center
09:11PM 42.6639 -74.0636 109° East 290 334 4,100 -1,140 Descending Boston Center
09:11PM 42.6539 -74.0294 112° Southeast 285 328 4,000 -600 Descending Boston Center
09:12PM 42.6381 -73.9725 111° Southeast 238 274 3,500 -540 Descending Boston Center
09:12PM 42.6322 -73.9442 106° East 260 299 3,500 -120 Level Boston Center
09:13PM 42.6183 -73.8958 111° Southeast 225 259 3,400 -420 Descending Boston Center
09:13PM 42.6103 -73.8647 109° East 241 277 3,100 -840 Descending Boston Center